Meteo Giornale » Osservazioni meteo Stati Uniti (USA) » Tacoma Narrows

ore: 11:53 - Osservazioni Meteo Tacoma Narrows
Lat. 47° 16' N Lon. 122° 34' W Alt. 96 metri s.l.m.

molto_nuvoloso

19 °C

Molto Nuvoloso

Temp. 24 Ore

14 °C

24 °C

Ovest/Sud-Ovest

11.1 Km/h

Dew point 13 °C

Umidità 68 %

Visibilità  10 Km

Il sole sorge alle ore 06:29

Il sole tramonta alle ore 19:50

Data e Ora Cielo e Fenomeni T °C DP °C Um. % Pres. hPa Vis. km Vento km/h
Oggi h: 11:53 molto_nuvoloso Molto Nuvoloso 19 13 68 1010 10 O/SO 11.1
Oggi h: 10:54 molto_nuvoloso Molto Nuvoloso 18 13 72 1010 10 S 14.8
Oggi h: 10:53 nuvoloso Nuvoloso 18 13 72 1010 10 S 14.8
Oggi h: 10:27 nuvoloso Nuvoloso 18 13 72 1010 10 O/SO 9.3
Oggi h: 09:53 molto_nuvoloso Molto Nuvoloso 17 13 77 1010 10 S/SO 9.3
Oggi h: 08:53 coperto Coperto 15 13 87 1010 10 S 13
Oggi h: 07:53 coperto Coperto 14 12 87 1010 10 S 13
Oggi h: 07:39 coperto Coperto 14 12 87 1010 10 S 13
Oggi h: 07:08 coperto Coperto 14 13 93 1010 10 SO 7.4
Oggi h: 06:53 coperto Coperto 14 13 93 1010 10 S/SO 11.1
Oggi h: 05:53 coperto Coperto 14 13 93 1010 10 SO 9.3
Oggi h: 05:17 molto_nuvoloso Molto Nuvoloso 14 12 87 1009 10 O 9.3
Oggi h: 05:04 poco_nuvoloso Poco Nuvoloso 14 12 87 1009 10 S/SO 7.4
Oggi h: 04:53 sereno Sereno 14 12 87 1009 10 SO 11.1
Oggi h: 03:53 sereno Sereno 14 11 82 1009 10 N 0
Oggi h: 02:53 sereno Sereno 14 10 76 1009 10 N 0
Oggi h: 01:53 sereno Sereno 14 11 82 1009 10 N 5.5
Oggi h: 00:53 sereno Sereno 14 10 76 1008 10 N 0
Ieri h: 23:53 sereno Sereno 17 10 63 1008 10 N 0
Ieri h: 22:53 sereno Sereno 17 11 67 1008 10 N 9.3
Ieri h: 21:53 sereno Sereno 18 11 63 1008 10 N 5.5
Ieri h: 20:53 sereno Sereno 19 11 59 1008 10 N 7.4
Ieri h: 19:53 sereno Sereno 20 11 56 1008 10 N/NE 11.1
Ieri h: 18:53 sereno Sereno 22 10 46 1008 10 N/NE 13
Ieri h: 17:53 sereno Sereno 23 11 46 1008 10 N/NE 14.8
Ieri h: 16:53 sereno Sereno 23 11 46 1008 10 N/NE 13
Ieri h: 15:53 sereno Sereno 23 11 46 1009 10 N/NE 14.8
Ieri h: 14:53 sereno Sereno 24 10 41 1009 10 N/NE 13
Ieri h: 13:53 sereno Sereno 22 10 46 1010 10 N/NE 16.7
Ieri h: 12:53 sereno Sereno 21 10 49 1011 10 N/NE 18.5